sensor_id;sensor_type;location;lat;lon;timestamp;pressure;altitude;pressure_sealevel;temperature;humidity
44734;BME280;30462;52.446;-1.930;2023-05-23T00:00:18;101279.2578;;;;
44734;BME280;30462;52.446;-1.930;2023-05-23T00:01:18;101278.6914;;;;
44734;BME280;30462;52.446;-1.930;2023-05-23T00:02:18;101283.7266;;;;
44734;BME280;30462;52.446;-1.930;2023-05-23T00:03:17;101281.0273;;;;
44734;BME280;30462;52.446;-1.930;2023-05-23T00:04:18;101280.9063;;;;
44734;BME280;30462;52.446;-1.930;2023-05-23T00:05:18;101282.8398;;;;
44734;BME280;30462;52.446;-1.930;2023-05-23T00:06:18;101281.2109;;;;
44734;BME280;30462;52.446;-1.930;2023-05-23T00:07:17;101279.9219;;;;
44734;BME280;30462;52.446;-1.930;2023-05-23T00:08:18;101279.3086;;;;
44734;BME280;30462;52.446;-1.930;2023-05-23T00:09:18;101282.6914;;;;
44734;BME280;30462;52.446;-1.930;2023-05-23T00:10:18;101280.4609;;;;
44734;BME280;30462;52.446;-1.930;2023-05-23T00:11:18;101281.5664;;;;
44734;BME280;30462;52.446;-1.930;2023-05-23T00:12:17;101279.9688;;;;
44734;BME280;30462;52.446;-1.930;2023-05-23T00:13:18;101281.4727;;;;
44734;BME280;30462;52.446;-1.930;2023-05-23T00:14:18;101283.7305;;;;
44734;BME280;30462;52.446;-1.930;2023-05-23T00:15:18;101283.8906;;;;
44734;BME280;30462;52.446;-1.930;2023-05-23T00:16:18;101285.1328;;;;
44734;BME280;30462;52.446;-1.930;2023-05-23T00:17:18;101287.3906;;;;
44734;BME280;30462;52.446;-1.930;2023-05-23T00:18:18;101290.9492;;;;
44734;BME280;30462;52.446;-1.930;2023-05-23T00:19:18;101286.2266;;;;
44734;BME280;30462;52.446;-1.930;2023-05-23T00:20:18;101285.7734;;;;
44734;BME280;30462;52.446;-1.930;2023-05-23T00:21:18;101286.8906;;;;
44734;BME280;30462;52.446;-1.930;2023-05-23T00:22:18;101290.1719;;;;
44734;BME280;30462;52.446;-1.930;2023-05-23T00:23:18;101290.6953;;;;
44734;BME280;30462;52.446;-1.930;2023-05-23T00:24:18;101288.7305;;;;
44734;BME280;30462;52.446;-1.930;2023-05-23T00:25:18;101290.2617;;;;
44734;BME280;30462;52.446;-1.930;2023-05-23T00:26:17;101291.3672;;;;
44734;BME280;30462;52.446;-1.930;2023-05-23T00:27:18;101292.082;;;;
44734;BME280;30462;52.446;-1.930;2023-05-23T00:28:18;101291.4336;;;;
44734;BME280;30462;52.446;-1.930;2023-05-23T00:29:18;101287.9102;;;;
44734;BME280;30462;52.446;-1.930;2023-05-23T00:30:18;101288.3984;;;;
44734;BME280;30462;52.446;-1.930;2023-05-23T00:31:18;101290.3164;;;;
44734;BME280;30462;52.446;-1.930;2023-05-23T00:32:17;101288.8867;;;;
44734;BME280;30462;52.446;-1.930;2023-05-23T00:33:18;101289.5469;;;;
44734;BME280;30462;52.446;-1.930;2023-05-23T00:34:18;101291.2148;;;;
44734;BME280;30462;52.446;-1.930;2023-05-23T00:35:18;101291.6914;;;;
44734;BME280;30462;52.446;-1.930;2023-05-23T00:36:18;101289.8906;;;;
44734;BME280;30462;52.446;-1.930;2023-05-23T00:37:18;101289.4297;;;;
44734;BME280;30462;52.446;-1.930;2023-05-23T00:38:18;101291.457;;;;
44734;BME280;30462;52.446;-1.930;2023-05-23T00:39:18;101290.625;;;;
44734;BME280;30462;52.446;-1.930;2023-05-23T00:40:17;101289.9883;;;;
44734;BME280;30462;52.446;-1.930;2023-05-23T00:41:18;101290.9766;;;;
44734;BME280;30462;52.446;-1.930;2023-05-23T00:42:17;101291.3594;;;;
44734;BME280;30462;52.446;-1.930;2023-05-23T00:43:18;101290.1953;;;;
44734;BME280;30462;52.446;-1.930;2023-05-23T00:44:18;101289.0078;;;;
44734;BME280;30462;52.446;-1.930;2023-05-23T00:45:18;101291.5742;;;;
44734;BME280;30462;52.446;-1.930;2023-05-23T00:46:17;101293.2617;;;;
44734;BME280;30462;52.446;-1.930;2023-05-23T00:47:18;101290.3164;;;;
44734;BME280;30462;52.446;-1.930;2023-05-23T00:48:18;101291.0781;;;;
44734;BME280;30462;52.446;-1.930;2023-05-23T00:49:18;101287.6133;;;;
44734;BME280;30462;52.446;-1.930;2023-05-23T00:50:18;101292.0586;;;;
44734;BME280;30462;52.446;-1.930;2023-05-23T00:51:18;101289.4922;;;;
44734;BME280;30462;52.446;-1.930;2023-05-23T00:52:18;101292.0039;;;;
44734;BME280;30462;52.446;-1.930;2023-05-23T00:53:18;101293.6641;;;;
44734;BME280;30462;52.446;-1.930;2023-05-23T00:54:19;101294.8711;;;;
44734;BME280;30462;52.446;-1.930;2023-05-23T00:55:18;101296.6914;;;;
44734;BME280;30462;52.446;-1.930;2023-05-23T00:56:17;101297.8789;;;;
44734;BME280;30462;52.446;-1.930;2023-05-23T00:57:18;101290.2773;;;;
44734;BME280;30462;52.446;-1.930;2023-05-23T00:58:18;101291.9805;;;;
44734;BME280;30462;52.446;-1.930;2023-05-23T00:59:18;101290.1133;;;;
44734;BME280;30462;52.446;-1.930;2023-05-23T01:00:18;101289.3242;;;;
44734;BME280;30462;52.446;-1.930;2023-05-23T01:01:18;101289.4258;;;;
44734;BME280;30462;52.446;-1.930;2023-05-23T01:02:18;101287.3125;;;;
44734;BME280;30462;52.446;-1.930;2023-05-23T01:03:18;101288.1289;;;;
44734;BME280;30462;52.446;-1.930;2023-05-23T01:04:18;101289.2617;;;;
44734;BME280;30462;52.446;-1.930;2023-05-23T01:05:18;101285.2852;;;;
44734;BME280;30462;52.446;-1.930;2023-05-23T01:06:18;101288.2227;;;;
44734;BME280;30462;52.446;-1.930;2023-05-23T01:07:17;101286.1211;;;;
44734;BME280;30462;52.446;-1.930;2023-05-23T01:08:18;101286.5742;;;;
44734;BME280;30462;52.446;-1.930;2023-05-23T01:09:18;101288.2617;;;;
44734;BME280;30462;52.446;-1.930;2023-05-23T01:10:19;101282.5859;;;;
44734;BME280;30462;52.446;-1.930;2023-05-23T01:11:19;101285.6133;;;;
44734;BME280;30462;52.446;-1.930;2023-05-23T01:12:19;101282.6133;;;;
44734;BME280;30462;52.446;-1.930;2023-05-23T01:13:20;101279.9883;;;;
44734;BME280;30462;52.446;-1.930;2023-05-23T01:14:19;101284.0586;;;;
44734;BME280;30462;52.446;-1.930;2023-05-23T01:15:18;101283.668;;;;
44734;BME280;30462;52.446;-1.930;2023-05-23T01:16:19;101286.1367;;;;
44734;BME280;30462;52.446;-1.930;2023-05-23T01:17:20;101283.0469;;;;
44734;BME280;30462;52.446;-1.930;2023-05-23T01:18:20;101288.168;;;;
44734;BME280;30462;52.446;-1.930;2023-05-23T01:20:19;101290.4141;;;;
44734;BME280;30462;52.446;-1.930;2023-05-23T01:21:17;101288.7539;;;;
44734;BME280;30462;52.446;-1.930;2023-05-23T01:27:22;101289.6211;;;;
44734;BME280;30462;52.446;-1.930;2023-05-23T01:28:19;101289.3438;;;;
44734;BME280;30462;52.446;-1.930;2023-05-23T01:29:21;101291.3711;;;;
44734;BME280;30462;52.446;-1.930;2023-05-23T01:30:18;101290.8711;;;;
44734;BME280;30462;52.446;-1.930;2023-05-23T01:31:18;101293.5234;;;;
44734;BME280;30462;52.446;-1.930;2023-05-23T01:32:18;101293;;;;
44734;BME280;30462;52.446;-1.930;2023-05-23T01:33:18;101290.7344;;;;
44734;BME280;30462;52.446;-1.930;2023-05-23T01:34:18;101290.6172;;;;
44734;BME280;30462;52.446;-1.930;2023-05-23T01:35:19;101293.2656;;;;
44734;BME280;30462;52.446;-1.930;2023-05-23T01:36:17;101290.2148;;;;
44734;BME280;30462;52.446;-1.930;2023-05-23T01:37:18;101291.5391;;;;
44734;BME280;30462;52.446;-1.930;2023-05-23T01:38:17;101293.8984;;;;
44734;BME280;30462;52.446;-1.930;2023-05-23T01:39:18;101292.9102;;;;
44734;BME280;30462;52.446;-1.930;2023-05-23T01:40:18;101291.7852;;;;
44734;BME280;30462;52.446;-1.930;2023-05-23T01:41:17;101293.2188;;;;
44734;BME280;30462;52.446;-1.930;2023-05-23T01:42:19;101293.3438;;;;
44734;BME280;30462;52.446;-1.930;2023-05-23T01:43:20;101296.3477;;;;
44734;BME280;30462;52.446;-1.930;2023-05-23T01:44:18;101299.1758;;;;
44734;BME280;30462;52.446;-1.930;2023-05-23T01:45:17;101297.2578;;;;
44734;BME280;30462;52.446;-1.930;2023-05-23T01:46:18;101298.2656;;;;
44734;BME280;30462;52.446;-1.930;2023-05-23T01:47:18;101296.0352;;;;
44734;BME280;30462;52.446;-1.930;2023-05-23T01:48:18;101295.9375;;;;
44734;BME280;30462;52.446;-1.930;2023-05-23T01:49:17;101296.6992;;;;
44734;BME280;30462;52.446;-1.930;2023-05-23T01:50:18;101296.668;;;;
44734;BME280;30462;52.446;-1.930;2023-05-23T01:51:18;101298.1836;;;;
44734;BME280;30462;52.446;-1.930;2023-05-23T01:52:17;101300.9727;;;;
44734;BME280;30462;52.446;-1.930;2023-05-23T01:53:19;101299.4336;;;;
44734;BME280;30462;52.446;-1.930;2023-05-23T01:54:17;101301.6563;;;;
44734;BME280;30462;52.446;-1.930;2023-05-23T01:55:18;101297.8203;;;;
44734;BME280;30462;52.446;-1.930;2023-05-23T01:56:17;101300.168;;;;
44734;BME280;30462;52.446;-1.930;2023-05-23T01:57:18;101298.582;;;;
44734;BME280;30462;52.446;-1.930;2023-05-23T01:58:18;101300.4258;;;;
44734;BME280;30462;52.446;-1.930;2023-05-23T01:59:18;101299.5313;;;;
44734;BME280;30462;52.446;-1.930;2023-05-23T02:00:18;101302.0156;;;;
44734;BME280;30462;52.446;-1.930;2023-05-23T02:01:17;101300.5313;;;;
44734;BME280;30462;52.446;-1.930;2023-05-23T02:02:17;101300.0117;;;;
44734;BME280;30462;52.446;-1.930;2023-05-23T02:03:18;101299;;;;
44734;BME280;30462;52.446;-1.930;2023-05-23T02:04:18;101299.125;;;;
44734;BME280;30462;52.446;-1.930;2023-05-23T02:05:18;101300.0039;;;;
44734;BME280;30462;52.446;-1.930;2023-05-23T02:06:18;101302.0664;;;;
44734;BME280;30462;52.446;-1.930;2023-05-23T02:07:18;101298.2266;;;;
44734;BME280;30462;52.446;-1.930;2023-05-23T02:08:18;101301.4688;;;;
44734;BME280;30462;52.446;-1.930;2023-05-23T02:09:18;101301.1289;;;;
44734;BME280;30462;52.446;-1.930;2023-05-23T02:10:18;101301.6758;;;;
44734;BME280;30462;52.446;-1.930;2023-05-23T02:11:18;101304.7539;;;;
44734;BME280;30462;52.446;-1.930;2023-05-23T02:12:18;101300.3672;;;;
44734;BME280;30462;52.446;-1.930;2023-05-23T02:13:17;101304.1758;;;;
44734;BME280;30462;52.446;-1.930;2023-05-23T02:14:19;101300.0039;;;;
44734;BME280;30462;52.446;-1.930;2023-05-23T02:15:18;101298.25;;;;
44734;BME280;30462;52.446;-1.930;2023-05-23T02:16:18;101298.1172;;;;
44734;BME280;30462;52.446;-1.930;2023-05-23T02:17:17;101298.2695;;;;
44734;BME280;30462;52.446;-1.930;2023-05-23T02:18:18;101299.7695;;;;
44734;BME280;30462;52.446;-1.930;2023-05-23T02:19:18;101296.4219;;;;
44734;BME280;30462;52.446;-1.930;2023-05-23T02:20:18;101297.0117;;;;
44734;BME280;30462;52.446;-1.930;2023-05-23T02:21:17;101294.7891;;;;
44734;BME280;30462;52.446;-1.930;2023-05-23T02:23:18;101295.8164;;;;
44734;BME280;30462;52.446;-1.930;2023-05-23T02:24:18;101295.0898;;;;
44734;BME280;30462;52.446;-1.930;2023-05-23T02:25:18;101298.2031;;;;
44734;BME280;30462;52.446;-1.930;2023-05-23T02:26:18;101299.8867;;;;
44734;BME280;30462;52.446;-1.930;2023-05-23T02:27:18;101303.7539;;;;
44734;BME280;30462;52.446;-1.930;2023-05-23T02:28:18;101299.1797;;;;
44734;BME280;30462;52.446;-1.930;2023-05-23T02:29:18;101299.5703;;;;
44734;BME280;30462;52.446;-1.930;2023-05-23T02:30:18;101296.9883;;;;
44734;BME280;30462;52.446;-1.930;2023-05-23T02:31:18;101291.5898;;;;
44734;BME280;30462;52.446;-1.930;2023-05-23T02:32:18;101299.125;;;;
44734;BME280;30462;52.446;-1.930;2023-05-23T02:33:18;101294.5469;;;;
44734;BME280;30462;52.446;-1.930;2023-05-23T02:34:17;101292.2305;;;;
44734;BME280;30462;52.446;-1.930;2023-05-23T02:35:17;101292.1133;;;;
44734;BME280;30462;52.446;-1.930;2023-05-23T02:36:17;101289.0664;;;;
44734;BME280;30462;52.446;-1.930;2023-05-23T02:37:18;101288.8984;;;;
44734;BME280;30462;52.446;-1.930;2023-05-23T02:38:18;101294.1602;;;;
44734;BME280;30462;52.446;-1.930;2023-05-23T02:39:18;101293.5938;;;;
44734;BME280;30462;52.446;-1.930;2023-05-23T02:40:18;101292.2617;;;;
44734;BME280;30462;52.446;-1.930;2023-05-23T02:41:18;101292.3438;;;;
44734;BME280;30462;52.446;-1.930;2023-05-23T02:42:18;101290.6406;;;;
44734;BME280;30462;52.446;-1.930;2023-05-23T02:43:18;101291.1797;;;;
44734;BME280;30462;52.446;-1.930;2023-05-23T02:44:18;101296.4883;;;;
44734;BME280;30462;52.446;-1.930;2023-05-23T02:45:17;101296.793;;;;
44734;BME280;30462;52.446;-1.930;2023-05-23T02:46:17;101296.3086;;;;
44734;BME280;30462;52.446;-1.930;2023-05-23T02:47:18;101298.1484;;;;
44734;BME280;30462;52.446;-1.930;2023-05-23T02:48:18;101298.9336;;;;
44734;BME280;30462;52.446;-1.930;2023-05-23T02:49:18;101299.1602;;;;
44734;BME280;30462;52.446;-1.930;2023-05-23T02:50:18;101300.1133;;;;
44734;BME280;30462;52.446;-1.930;2023-05-23T02:51:18;101299.6836;;;;
44734;BME280;30462;52.446;-1.930;2023-05-23T02:52:18;101303.5313;;;;
44734;BME280;30462;52.446;-1.930;2023-05-23T02:53:18;101301.2305;;;;
44734;BME280;30462;52.446;-1.930;2023-05-23T02:54:18;101298.6563;;;;
44734;BME280;30462;52.446;-1.930;2023-05-23T02:55:18;101297.9492;;;;
44734;BME280;30462;52.446;-1.930;2023-05-23T02:56:18;101299.6719;;;;
44734;BME280;30462;52.446;-1.930;2023-05-23T02:57:18;101297.4844;;;;
44734;BME280;30462;52.446;-1.930;2023-05-23T02:58:18;101297.5859;;;;
44734;BME280;30462;52.446;-1.930;2023-05-23T02:59:18;101299.6016;;;;
44734;BME280;30462;52.446;-1.930;2023-05-23T03:00:18;101304.2695;;;;
44734;BME280;30462;52.446;-1.930;2023-05-23T03:01:18;101301.5;;;;
44734;BME280;30462;52.446;-1.930;2023-05-23T03:02:18;101302.2734;;;;
44734;BME280;30462;52.446;-1.930;2023-05-23T03:03:18;101306.4375;;;;
44734;BME280;30462;52.446;-1.930;2023-05-23T03:04:17;101303.4609;;;;
44734;BME280;30462;52.446;-1.930;2023-05-23T03:05:18;101304.9531;;;;
44734;BME280;30462;52.446;-1.930;2023-05-23T03:06:18;101305.9883;;;;
44734;BME280;30462;52.446;-1.930;2023-05-23T03:07:18;101304.6094;;;;
44734;BME280;30462;52.446;-1.930;2023-05-23T03:08:18;101303.8242;;;;
44734;BME280;30462;52.446;-1.930;2023-05-23T03:09:17;101302.4492;;;;
44734;BME280;30462;52.446;-1.930;2023-05-23T03:10:18;101304.4219;;;;
44734;BME280;30462;52.446;-1.930;2023-05-23T03:11:18;101306.1523;;;;
44734;BME280;30462;52.446;-1.930;2023-05-23T03:12:18;101309;;;;
44734;BME280;30462;52.446;-1.930;2023-05-23T03:13:18;101306.8984;;;;
44734;BME280;30462;52.446;-1.930;2023-05-23T03:14:18;101311.4688;;;;
44734;BME280;30462;52.446;-1.930;2023-05-23T03:15:18;101314.8828;;;;
44734;BME280;30462;52.446;-1.930;2023-05-23T03:16:18;101311.8008;;;;
44734;BME280;30462;52.446;-1.930;2023-05-23T03:17:18;101313.8398;;;;
44734;BME280;30462;52.446;-1.930;2023-05-23T03:18:18;101315.7461;;;;
44734;BME280;30462;52.446;-1.930;2023-05-23T03:19:18;101320.0742;;;;
44734;BME280;30462;52.446;-1.930;2023-05-23T03:20:18;101317.4063;;;;
44734;BME280;30462;52.446;-1.930;2023-05-23T03:21:18;101318.8477;;;;
44734;BME280;30462;52.446;-1.930;2023-05-23T03:22:18;101318.7813;;;;
44734;BME280;30462;52.446;-1.930;2023-05-23T03:23:18;101319.6797;;;;
44734;BME280;30462;52.446;-1.930;2023-05-23T03:24:17;101322.0117;;;;
44734;BME280;30462;52.446;-1.930;2023-05-23T03:25:18;101322.0117;;;;
44734;BME280;30462;52.446;-1.930;2023-05-23T03:26:18;101320.2031;;;;
44734;BME280;30462;52.446;-1.930;2023-05-23T03:27:18;101319.0859;;;;
44734;BME280;30462;52.446;-1.930;2023-05-23T03:28:18;101317.4102;;;;
44734;BME280;30462;52.446;-1.930;2023-05-23T03:29:17;101316.5742;;;;
44734;BME280;30462;52.446;-1.930;2023-05-23T03:30:18;101316.2578;;;;
44734;BME280;30462;52.446;-1.930;2023-05-23T03:31:18;101315.5508;;;;
44734;BME280;30462;52.446;-1.930;2023-05-23T03:32:18;101313.3242;;;;
44734;BME280;30462;52.446;-1.930;2023-05-23T03:33:18;101315.9453;;;;
44734;BME280;30462;52.446;-1.930;2023-05-23T03:34:18;101314.4375;;;;
44734;BME280;30462;52.446;-1.930;2023-05-23T03:35:17;101313.4102;;;;
44734;BME280;30462;52.446;-1.930;2023-05-23T03:36:17;101314.0938;;;;
44734;BME280;30462;52.446;-1.930;2023-05-23T03:37:18;101312.4102;;;;
44734;BME280;30462;52.446;-1.930;2023-05-23T03:38:18;101315.7656;;;;
44734;BME280;30462;52.446;-1.930;2023-05-23T03:39:18;101314.2344;;;;
44734;BME280;30462;52.446;-1.930;2023-05-23T03:40:18;101314.0938;;;;
44734;BME280;30462;52.446;-1.930;2023-05-23T03:41:17;101316.2891;;;;
44734;BME280;30462;52.446;-1.930;2023-05-23T03:42:18;101317.9727;;;;
44734;BME280;30462;52.446;-1.930;2023-05-23T03:43:18;101315.9961;;;;
44734;BME280;30462;52.446;-1.930;2023-05-23T03:44:18;101321.1953;;;;
44734;BME280;30462;52.446;-1.930;2023-05-23T03:45:18;101321.9922;;;;
44734;BME280;30462;52.446;-1.930;2023-05-23T03:46:17;101324.8594;;;;
44734;BME280;30462;52.446;-1.930;2023-05-23T03:47:18;101324.4141;;;;
44734;BME280;30462;52.446;-1.930;2023-05-23T03:48:18;101323.9727;;;;
44734;BME280;30462;52.446;-1.930;2023-05-23T03:49:18;101325.3242;;;;
44734;BME280;30462;52.446;-1.930;2023-05-23T03:50:18;101324.3555;;;;
44734;BME280;30462;52.446;-1.930;2023-05-23T03:51:18;101326.5117;;;;
44734;BME280;30462;52.446;-1.930;2023-05-23T03:52:18;101328.8125;;;;
44734;BME280;30462;52.446;-1.930;2023-05-23T03:53:18;101329.1055;;;;
44734;BME280;30462;52.446;-1.930;2023-05-23T03:54:17;101333.0156;;;;
44734;BME280;30462;52.446;-1.930;2023-05-23T03:55:19;101330.418;;;;
44734;BME280;30462;52.446;-1.930;2023-05-23T03:56:17;101332.6836;;;;
44734;BME280;30462;52.446;-1.930;2023-05-23T03:57:18;101332.7539;;;;
44734;BME280;30462;52.446;-1.930;2023-05-23T03:58:18;101335.6016;;;;
44734;BME280;30462;52.446;-1.930;2023-05-23T03:59:18;101332.8672;;;;
44734;BME280;30462;52.446;-1.930;2023-05-23T04:00:18;101335.6445;;;;
44734;BME280;30462;52.446;-1.930;2023-05-23T04:01:18;101338.1563;;;;
44734;BME280;30462;52.446;-1.930;2023-05-23T04:02:18;101337.1328;;;;
44734;BME280;30462;52.446;-1.930;2023-05-23T04:03:18;101337.4922;;;;
44734;BME280;30462;52.446;-1.930;2023-05-23T04:04:18;101332.9961;;;;
44734;BME280;30462;52.446;-1.930;2023-05-23T04:05:18;101335.8516;;;;
44734;BME280;30462;52.446;-1.930;2023-05-23T04:06:18;101336.1172;;;;
44734;BME280;30462;52.446;-1.930;2023-05-23T04:07:18;101334.7695;;;;
44734;BME280;30462;52.446;-1.930;2023-05-23T04:08:18;101334.4844;;;;
44734;BME280;30462;52.446;-1.930;2023-05-23T04:09:17;101332.8906;;;;
44734;BME280;30462;52.446;-1.930;2023-05-23T04:10:18;101330.918;;;;
44734;BME280;30462;52.446;-1.930;2023-05-23T04:11:18;101329.6133;;;;
44734;BME280;30462;52.446;-1.930;2023-05-23T04:12:18;101327.1328;;;;
44734;BME280;30462;52.446;-1.930;2023-05-23T04:13:18;101330.418;;;;
44734;BME280;30462;52.446;-1.930;2023-05-23T04:14:18;101329.5195;;;;
44734;BME280;30462;52.446;-1.930;2023-05-23T04:15:18;101328.9375;;;;
44734;BME280;30462;52.446;-1.930;2023-05-23T04:16:18;101331.8359;;;;
44734;BME280;30462;52.446;-1.930;2023-05-23T04:17:17;101331.6797;;;;
44734;BME280;30462;52.446;-1.930;2023-05-23T04:18:18;101330.4063;;;;
44734;BME280;30462;52.446;-1.930;2023-05-23T04:19:18;101328.7969;;;;
44734;BME280;30462;52.446;-1.930;2023-05-23T04:20:18;101329.9141;;;;
44734;BME280;30462;52.446;-1.930;2023-05-23T04:21:18;101332.2891;;;;
44734;BME280;30462;52.446;-1.930;2023-05-23T04:22:18;101332.3516;;;;
44734;BME280;30462;52.446;-1.930;2023-05-23T04:23:17;101330.582;;;;
44734;BME280;30462;52.446;-1.930;2023-05-23T04:24:18;101329.8984;;;;
44734;BME280;30462;52.446;-1.930;2023-05-23T04:25:18;101329.168;;;;
44734;BME280;30462;52.446;-1.930;2023-05-23T04:26:18;101334.1836;;;;
44734;BME280;30462;52.446;-1.930;2023-05-23T04:27:18;101328.4219;;;;
44734;BME280;30462;52.446;-1.930;2023-05-23T04:28:17;101333.2344;;;;
44734;BME280;30462;52.446;-1.930;2023-05-23T04:29:18;101329.0664;;;;
44734;BME280;30462;52.446;-1.930;2023-05-23T04:30:18;101331.2305;;;;
44734;BME280;30462;52.446;-1.930;2023-05-23T04:31:18;101329.4492;;;;
44734;BME280;30462;52.446;-1.930;2023-05-23T04:32:18;101330.8125;;;;
44734;BME280;30462;52.446;-1.930;2023-05-23T04:33:18;101329.2422;;;;
44734;BME280;30462;52.446;-1.930;2023-05-23T04:34:17;101326.3438;;;;
44734;BME280;30462;52.446;-1.930;2023-05-23T04:35:18;101326.3203;;;;
44734;BME280;30462;52.446;-1.930;2023-05-23T04:36:18;101327.3867;;;;
44734;BME280;30462;52.446;-1.930;2023-05-23T04:37:18;101328.2734;;;;
44734;BME280;30462;52.446;-1.930;2023-05-23T04:38:18;101328.1953;;;;
44734;BME280;30462;52.446;-1.930;2023-05-23T04:39:18;101328.2969;;;;
44734;BME280;30462;52.446;-1.930;2023-05-23T04:40:18;101330.957;;;;
44734;BME280;30462;52.446;-1.930;2023-05-23T04:41:18;101332.5547;;;;
44734;BME280;30462;52.446;-1.930;2023-05-23T04:42:17;101331.5625;;;;
44734;BME280;30462;52.446;-1.930;2023-05-23T04:43:17;101333.1484;;;;
44734;BME280;30462;52.446;-1.930;2023-05-23T04:44:18;101333.1328;;;;
44734;BME280;30462;52.446;-1.930;2023-05-23T04:45:18;101332.0586;;;;
44734;BME280;30462;52.446;-1.930;2023-05-23T04:46:18;101333.7188;;;;
44734;BME280;30462;52.446;-1.930;2023-05-23T04:47:17;101336.25;;;;
44734;BME280;30462;52.446;-1.930;2023-05-23T04:48:17;101335.668;;;;
44734;BME280;30462;52.446;-1.930;2023-05-23T04:49:18;101340.5859;;;;
44734;BME280;30462;52.446;-1.930;2023-05-23T04:50:18;101338.6172;;;;
44734;BME280;30462;52.446;-1.930;2023-05-23T04:51:18;101339.1484;;;;
44734;BME280;30462;52.446;-1.930;2023-05-23T04:52:18;101340.9883;;;;
44734;BME280;30462;52.446;-1.930;2023-05-23T04:53:17;101341.1992;;;;
44734;BME280;30462;52.446;-1.930;2023-05-23T04:54:17;101339.3906;;;;
44734;BME280;30462;52.446;-1.930;2023-05-23T04:55:18;101340.6914;;;;
44734;BME280;30462;52.446;-1.930;2023-05-23T04:56:17;101341.8359;;;;
44734;BME280;30462;52.446;-1.930;2023-05-23T04:57:17;101343.7578;;;;
44734;BME280;30462;52.446;-1.930;2023-05-23T04:58:17;101347.293;;;;
44734;BME280;30462;52.446;-1.930;2023-05-23T04:59:18;101343.1016;;;;
44734;BME280;30462;52.446;-1.930;2023-05-23T05:00:18;101342.8516;;;;
44734;BME280;30462;52.446;-1.930;2023-05-23T05:01:18;101342.8242;;;;
44734;BME280;30462;52.446;-1.930;2023-05-23T05:02:18;101343.1797;;;;
44734;BME280;30462;52.446;-1.930;2023-05-23T05:03:18;101342.1289;;;;
44734;BME280;30462;52.446;-1.930;2023-05-23T05:04:17;101341.3789;;;;
44734;BME280;30462;52.446;-1.930;2023-05-23T05:05:17;101339.5547;;;;
44734;BME280;30462;52.446;-1.930;2023-05-23T05:06:17;101341.9492;;;;
44734;BME280;30462;52.446;-1.930;2023-05-23T05:07:18;101340.3867;;;;
44734;BME280;30462;52.446;-1.930;2023-05-23T05:08:18;101340.7813;;;;
44734;BME280;30462;52.446;-1.930;2023-05-23T05:09:18;101339.1211;;;;
44734;BME280;30462;52.446;-1.930;2023-05-23T05:10:18;101344.1992;;;;
44734;BME280;30462;52.446;-1.930;2023-05-23T05:11:18;101338.6563;;;;
44734;BME280;30462;52.446;-1.930;2023-05-23T05:12:18;101342.293;;;;
44734;BME280;30462;52.446;-1.930;2023-05-23T05:13:18;101339.9336;;;;
44734;BME280;30462;52.446;-1.930;2023-05-23T05:14:18;101336.5039;;;;
44734;BME280;30462;52.446;-1.930;2023-05-23T05:15:17;101337.6133;;;;
44734;BME280;30462;52.446;-1.930;2023-05-23T05:16:17;101338.5234;;;;
44734;BME280;30462;52.446;-1.930;2023-05-23T05:17:18;101335.7148;;;;
44734;BME280;30462;52.446;-1.930;2023-05-23T05:18:18;101337.1172;;;;
44734;BME280;30462;52.446;-1.930;2023-05-23T05:19:18;101337.9258;;;;
44734;BME280;30462;52.446;-1.930;2023-05-23T05:20:18;101338.8867;;;;
44734;BME280;30462;52.446;-1.930;2023-05-23T05:21:18;101339.0938;;;;
44734;BME280;30462;52.446;-1.930;2023-05-23T05:22:18;101340.5938;;;;
44734;BME280;30462;52.446;-1.930;2023-05-23T05:23:18;101341.2969;;;;
44734;BME280;30462;52.446;-1.930;2023-05-23T05:24:18;101342.4883;;;;
44734;BME280;30462;52.446;-1.930;2023-05-23T05:25:18;101342.1953;;;;
44734;BME280;30462;52.446;-1.930;2023-05-23T05:26:18;101345.4883;;;;
44734;BME280;30462;52.446;-1.930;2023-05-23T05:27:18;101344.8555;;;;
44734;BME280;30462;52.446;-1.930;2023-05-23T05:28:18;101348.2148;;;;
44734;BME280;30462;52.446;-1.930;2023-05-23T05:29:18;101350.332;;;;
44734;BME280;30462;52.446;-1.930;2023-05-23T05:30:18;101347.6094;;;;
44734;BME280;30462;52.446;-1.930;2023-05-23T05:31:17;101347.5547;;;;
44734;BME280;30462;52.446;-1.930;2023-05-23T05:32:18;101348.5117;;;;
44734;BME280;30462;52.446;-1.930;2023-05-23T05:33:18;101346.0508;;;;
44734;BME280;30462;52.446;-1.930;2023-05-23T05:34:18;101346.0703;;;;
44734;BME280;30462;52.446;-1.930;2023-05-23T05:35:18;101345.7852;;;;
44734;BME280;30462;52.446;-1.930;2023-05-23T05:36:18;101343.2969;;;;
44734;BME280;30462;52.446;-1.930;2023-05-23T05:37:18;101344.1953;;;;
44734;BME280;30462;52.446;-1.930;2023-05-23T05:38:18;101346.2031;;;;
44734;BME280;30462;52.446;-1.930;2023-05-23T05:39:18;101345.0039;;;;
44734;BME280;30462;52.446;-1.930;2023-05-23T05:40:17;101348.9023;;;;
44734;BME280;30462;52.446;-1.930;2023-05-23T05:41:19;101346.7891;;;;
44734;BME280;30462;52.446;-1.930;2023-05-23T05:42:17;101349.8477;;;;
44734;BME280;30462;52.446;-1.930;2023-05-23T05:43:18;101351.2344;;;;
44734;BME280;30462;52.446;-1.930;2023-05-23T05:44:18;101351.4805;;;;
44734;BME280;30462;52.446;-1.930;2023-05-23T05:45:18;101353.4102;;;;
44734;BME280;30462;52.446;-1.930;2023-05-23T05:46:17;101355.0742;;;;
44734;BME280;30462;52.446;-1.930;2023-05-23T05:47:18;101354.3906;;;;
44734;BME280;30462;52.446;-1.930;2023-05-23T05:48:18;101355.7734;;;;
44734;BME280;30462;52.446;-1.930;2023-05-23T05:49:18;101355.8633;;;;
44734;BME280;30462;52.446;-1.930;2023-05-23T05:50:18;101356.3281;;;;
44734;BME280;30462;52.446;-1.930;2023-05-23T05:51:17;101356.8047;;;;
44734;BME280;30462;52.446;-1.930;2023-05-23T05:52:17;101356.1602;;;;